sensor_id;sensor_type;location;lat;lon;timestamp;P1;durP1;ratioP1;P2;durP2;ratioP2
66521;SDS011;53349;53.538;8.584;2024-02-23T00:00:01;2.10;;;0.30;;
66521;SDS011;53349;53.538;8.584;2024-02-23T00:02:26;2.83;;;0.30;;
66521;SDS011;53349;53.538;8.584;2024-02-23T00:04:52;1.10;;;0.30;;
66521;SDS011;53349;53.538;8.584;2024-02-23T00:07:17;2.40;;;0.30;;
66521;SDS011;53349;53.538;8.584;2024-02-23T00:09:42;2.63;;;0.50;;
66521;SDS011;53349;53.538;8.584;2024-02-23T00:12:07;0.87;;;0.20;;
66521;SDS011;53349;53.538;8.584;2024-02-23T00:14:33;2.73;;;0.30;;
66521;SDS011;53349;53.538;8.584;2024-02-23T00:16:58;1.60;;;0.20;;
66521;SDS011;53349;53.538;8.584;2024-02-23T00:19:23;0.70;;;0.10;;
66521;SDS011;53349;53.538;8.584;2024-02-23T00:21:48;0.73;;;0.20;;
66521;SDS011;53349;53.538;8.584;2024-02-23T00:24:14;2.43;;;0.33;;
66521;SDS011;53349;53.538;8.584;2024-02-23T00:26:39;2.47;;;0.10;;
66521;SDS011;53349;53.538;8.584;2024-02-23T00:29:04;1.40;;;0.20;;
66521;SDS011;53349;53.538;8.584;2024-02-23T00:31:30;1.13;;;0.10;;
66521;SDS011;53349;53.538;8.584;2024-02-23T00:33:55;1.23;;;0.20;;
66521;SDS011;53349;53.538;8.584;2024-02-23T00:36:20;0.93;;;0.20;;
66521;SDS011;53349;53.538;8.584;2024-02-23T00:38:45;1.67;;;0.30;;
66521;SDS011;53349;53.538;8.584;2024-02-23T00:41:11;1.50;;;0.30;;
66521;SDS011;53349;53.538;8.584;2024-02-23T00:43:39;1.00;;;0.20;;
66521;SDS011;53349;53.538;8.584;2024-02-23T00:46:05;1.65;;;0.20;;
66521;SDS011;53349;53.538;8.584;2024-02-23T00:48:30;2.47;;;0.20;;
66521;SDS011;53349;53.538;8.584;2024-02-23T00:50:55;0.90;;;0.20;;
66521;SDS011;53349;53.538;8.584;2024-02-23T00:53:21;1.33;;;0.20;;
66521;SDS011;53349;53.538;8.584;2024-02-23T00:55:46;1.33;;;0.10;;
66521;SDS011;53349;53.538;8.584;2024-02-23T00:58:11;2.20;;;0.27;;
66521;SDS011;53349;53.538;8.584;2024-02-23T01:00:37;0.43;;;0.10;;
66521;SDS011;53349;53.538;8.584;2024-02-23T01:03:02;1.23;;;0.20;;
66521;SDS011;53349;53.538;8.584;2024-02-23T01:05:27;3.03;;;0.20;;
66521;SDS011;53349;53.538;8.584;2024-02-23T01:07:52;1.00;;;0.20;;
66521;SDS011;53349;53.538;8.584;2024-02-23T01:10:18;1.37;;;0.20;;
66521;SDS011;53349;53.538;8.584;2024-02-23T01:12:43;1.30;;;0.10;;
66521;SDS011;53349;53.538;8.584;2024-02-23T01:15:08;2.10;;;0.30;;
66521;SDS011;53349;53.538;8.584;2024-02-23T01:17:34;1.17;;;0.20;;
66521;SDS011;53349;53.538;8.584;2024-02-23T01:19:59;1.42;;;0.20;;
66521;SDS011;53349;53.538;8.584;2024-02-23T01:22:24;0.83;;;0.20;;
66521;SDS011;53349;53.538;8.584;2024-02-23T01:24:49;0.50;;;0.10;;
66521;SDS011;53349;53.538;8.584;2024-02-23T01:27:15;1.97;;;0.23;;
66521;SDS011;53349;53.538;8.584;2024-02-23T01:29:40;0.93;;;0.10;;
66521;SDS011;53349;53.538;8.584;2024-02-23T01:32:05;1.70;;;0.30;;
66521;SDS011;53349;53.538;8.584;2024-02-23T01:34:31;1.80;;;0.20;;
66521;SDS011;53349;53.538;8.584;2024-02-23T01:36:56;1.23;;;0.20;;
66521;SDS011;53349;53.538;8.584;2024-02-23T01:39:21;1.50;;;0.20;;
66521;SDS011;53349;53.538;8.584;2024-02-23T01:41:46;1.40;;;0.20;;
66521;SDS011;53349;53.538;8.584;2024-02-23T01:44:11;1.83;;;0.30;;
66521;SDS011;53349;53.538;8.584;2024-02-23T01:46:37;2.87;;;0.30;;
66521;SDS011;53349;53.538;8.584;2024-02-23T01:49:02;2.93;;;0.30;;
66521;SDS011;53349;53.538;8.584;2024-02-23T01:51:27;1.83;;;0.30;;
66521;SDS011;53349;53.538;8.584;2024-02-23T01:53:53;1.43;;;0.30;;
66521;SDS011;53349;53.538;8.584;2024-02-23T01:56:18;1.60;;;0.30;;
66521;SDS011;53349;53.538;8.584;2024-02-23T01:58:44;4.28;;;0.50;;
66521;SDS011;53349;53.538;8.584;2024-02-23T02:01:09;2.73;;;0.47;;
66521;SDS011;53349;53.538;8.584;2024-02-23T02:03:35;2.27;;;0.37;;
66521;SDS011;53349;53.538;8.584;2024-02-23T02:06:01;3.28;;;0.50;;
66521;SDS011;53349;53.538;8.584;2024-02-23T02:08:26;1.77;;;0.43;;
66521;SDS011;53349;53.538;8.584;2024-02-23T02:10:52;3.17;;;0.40;;
66521;SDS011;53349;53.538;8.584;2024-02-23T02:13:17;1.20;;;0.20;;
66521;SDS011;53349;53.538;8.584;2024-02-23T02:15:42;2.27;;;0.20;;
66521;SDS011;53349;53.538;8.584;2024-02-23T02:18:07;2.03;;;0.20;;
66521;SDS011;53349;53.538;8.584;2024-02-23T02:20:33;1.90;;;0.33;;
66521;SDS011;53349;53.538;8.584;2024-02-23T02:22:58;2.87;;;0.30;;
66521;SDS011;53349;53.538;8.584;2024-02-23T02:25:23;3.58;;;0.30;;
66521;SDS011;53349;53.538;8.584;2024-02-23T02:27:49;0.90;;;0.27;;
66521;SDS011;53349;53.538;8.584;2024-02-23T02:30:14;2.73;;;0.40;;
66521;SDS011;53349;53.538;8.584;2024-02-23T02:32:39;1.20;;;0.20;;
66521;SDS011;53349;53.538;8.584;2024-02-23T02:35:05;2.20;;;0.27;;
66521;SDS011;53349;53.538;8.584;2024-02-23T02:37:30;2.45;;;0.30;;
66521;SDS011;53349;53.538;8.584;2024-02-23T02:39:56;1.88;;;0.30;;
66521;SDS011;53349;53.538;8.584;2024-02-23T02:42:21;1.97;;;0.47;;
66521;SDS011;53349;53.538;8.584;2024-02-23T02:44:46;2.33;;;0.40;;
66521;SDS011;53349;53.538;8.584;2024-02-23T02:47:11;2.80;;;0.50;;
66521;SDS011;53349;53.538;8.584;2024-02-23T02:49:37;2.77;;;0.40;;
66521;SDS011;53349;53.538;8.584;2024-02-23T02:52:02;2.87;;;0.47;;
66521;SDS011;53349;53.538;8.584;2024-02-23T02:54:27;4.53;;;0.63;;
66521;SDS011;53349;53.538;8.584;2024-02-23T02:56:52;2.43;;;0.40;;
66521;SDS011;53349;53.538;8.584;2024-02-23T02:59:17;1.90;;;0.40;;
66521;SDS011;53349;53.538;8.584;2024-02-23T03:01:43;1.20;;;0.30;;
66521;SDS011;53349;53.538;8.584;2024-02-23T03:04:08;1.80;;;0.60;;
66521;SDS011;53349;53.538;8.584;2024-02-23T03:06:36;2.93;;;0.50;;
66521;SDS011;53349;53.538;8.584;2024-02-23T03:09:01;3.83;;;0.40;;
66521;SDS011;53349;53.538;8.584;2024-02-23T03:11:26;3.47;;;0.50;;
66521;SDS011;53349;53.538;8.584;2024-02-23T03:13:51;6.00;;;0.53;;
66521;SDS011;53349;53.538;8.584;2024-02-23T03:16:17;1.53;;;0.33;;
66521;SDS011;53349;53.538;8.584;2024-02-23T03:18:43;2.35;;;0.50;;
66521;SDS011;53349;53.538;8.584;2024-02-23T03:21:08;3.33;;;0.50;;
66521;SDS011;53349;53.538;8.584;2024-02-23T03:23:33;2.47;;;0.60;;
66521;SDS011;53349;53.538;8.584;2024-02-23T03:25:59;1.73;;;0.30;;
66521;SDS011;53349;53.538;8.584;2024-02-23T03:28:24;2.73;;;0.43;;
66521;SDS011;53349;53.538;8.584;2024-02-23T03:30:49;2.57;;;0.50;;
66521;SDS011;53349;53.538;8.584;2024-02-23T03:33:14;4.07;;;0.50;;
66521;SDS011;53349;53.538;8.584;2024-02-23T03:35:39;2.17;;;0.30;;
66521;SDS011;53349;53.538;8.584;2024-02-23T03:38:05;2.37;;;0.30;;
66521;SDS011;53349;53.538;8.584;2024-02-23T03:40:30;2.83;;;0.77;;
66521;SDS011;53349;53.538;8.584;2024-02-23T03:42:58;5.77;;;0.43;;
66521;SDS011;53349;53.538;8.584;2024-02-23T03:45:23;2.07;;;0.50;;
66521;SDS011;53349;53.538;8.584;2024-02-23T03:47:48;6.27;;;0.80;;
66521;SDS011;53349;53.538;8.584;2024-02-23T03:50:14;2.67;;;0.60;;
66521;SDS011;53349;53.538;8.584;2024-02-23T03:52:39;2.60;;;0.70;;
66521;SDS011;53349;53.538;8.584;2024-02-23T03:55:04;2.93;;;0.60;;
66521;SDS011;53349;53.538;8.584;2024-02-23T03:57:30;3.47;;;0.90;;
66521;SDS011;53349;53.538;8.584;2024-02-23T03:59:56;3.60;;;0.80;;
66521;SDS011;53349;53.538;8.584;2024-02-23T04:02:22;6.25;;;0.93;;
66521;SDS011;53349;53.538;8.584;2024-02-23T04:04:47;4.37;;;1.30;;
66521;SDS011;53349;53.538;8.584;2024-02-23T04:07:12;4.93;;;1.00;;
66521;SDS011;53349;53.538;8.584;2024-02-23T04:09:37;4.37;;;1.10;;
66521;SDS011;53349;53.538;8.584;2024-02-23T04:12:03;4.70;;;0.97;;
66521;SDS011;53349;53.538;8.584;2024-02-23T04:14:28;2.97;;;0.95;;
66521;SDS011;53349;53.538;8.584;2024-02-23T04:16:53;5.78;;;1.15;;
66521;SDS011;53349;53.538;8.584;2024-02-23T04:19:19;3.97;;;1.00;;
66521;SDS011;53349;53.538;8.584;2024-02-23T04:21:44;5.20;;;1.13;;
66521;SDS011;53349;53.538;8.584;2024-02-23T04:24:09;4.60;;;1.05;;
66521;SDS011;53349;53.538;8.584;2024-02-23T04:26:34;3.40;;;1.10;;
66521;SDS011;53349;53.538;8.584;2024-02-23T04:28:59;2.93;;;0.97;;
66521;SDS011;53349;53.538;8.584;2024-02-23T04:31:25;4.60;;;0.98;;
66521;SDS011;53349;53.538;8.584;2024-02-23T04:33:50;3.35;;;0.98;;
66521;SDS011;53349;53.538;8.584;2024-02-23T04:36:18;5.70;;;1.25;;
66521;SDS011;53349;53.538;8.584;2024-02-23T04:38:43;5.82;;;1.35;;
66521;SDS011;53349;53.538;8.584;2024-02-23T04:41:09;4.07;;;1.10;;
66521;SDS011;53349;53.538;8.584;2024-02-23T04:43:34;6.83;;;1.33;;
66521;SDS011;53349;53.538;8.584;2024-02-23T04:45:59;4.93;;;1.13;;
66521;SDS011;53349;53.538;8.584;2024-02-23T04:48:24;3.80;;;1.00;;
66521;SDS011;53349;53.538;8.584;2024-02-23T04:50:49;6.07;;;1.30;;
66521;SDS011;53349;53.538;8.584;2024-02-23T04:53:15;4.43;;;1.27;;
66521;SDS011;53349;53.538;8.584;2024-02-23T04:55:40;7.10;;;1.13;;
66521;SDS011;53349;53.538;8.584;2024-02-23T04:58:05;3.97;;;1.20;;
66521;SDS011;53349;53.538;8.584;2024-02-23T05:00:30;3.93;;;1.10;;
66521;SDS011;53349;53.538;8.584;2024-02-23T05:02:56;6.83;;;1.40;;
66521;SDS011;53349;53.538;8.584;2024-02-23T05:05:22;5.05;;;1.60;;
66521;SDS011;53349;53.538;8.584;2024-02-23T05:07:48;6.20;;;1.50;;
66521;SDS011;53349;53.538;8.584;2024-02-23T05:10:27;4.43;;;1.20;;
66521;SDS011;53349;53.538;8.584;2024-02-23T05:12:53;7.07;;;1.50;;
66521;SDS011;53349;53.538;8.584;2024-02-23T05:15:18;5.03;;;1.33;;
66521;SDS011;53349;53.538;8.584;2024-02-23T05:17:43;6.33;;;1.20;;
66521;SDS011;53349;53.538;8.584;2024-02-23T05:20:08;4.77;;;1.10;;
66521;SDS011;53349;53.538;8.584;2024-02-23T05:22:34;5.17;;;1.03;;
66521;SDS011;53349;53.538;8.584;2024-02-23T05:24:59;4.57;;;0.70;;
66521;SDS011;53349;53.538;8.584;2024-02-23T05:27:24;4.93;;;0.67;;
66521;SDS011;53349;53.538;8.584;2024-02-23T05:29:49;6.83;;;1.10;;
66521;SDS011;53349;53.538;8.584;2024-02-23T05:32:15;3.23;;;0.77;;
66521;SDS011;53349;53.538;8.584;2024-02-23T05:34:40;3.40;;;0.60;;
66521;SDS011;53349;53.538;8.584;2024-02-23T05:37:05;1.80;;;0.50;;
66521;SDS011;53349;53.538;8.584;2024-02-23T05:39:30;2.97;;;0.60;;
66521;SDS011;53349;53.538;8.584;2024-02-23T05:41:55;3.43;;;0.60;;
66521;SDS011;53349;53.538;8.584;2024-02-23T05:44:21;5.10;;;0.93;;
66521;SDS011;53349;53.538;8.584;2024-02-23T05:46:46;6.17;;;1.10;;
66521;SDS011;53349;53.538;8.584;2024-02-23T05:49:11;3.40;;;0.73;;
66521;SDS011;53349;53.538;8.584;2024-02-23T05:51:37;4.32;;;0.65;;
66521;SDS011;53349;53.538;8.584;2024-02-23T05:54:02;4.17;;;0.87;;
66521;SDS011;53349;53.538;8.584;2024-02-23T05:56:27;3.80;;;0.90;;
66521;SDS011;53349;53.538;8.584;2024-02-23T05:58:53;3.17;;;1.10;;
66521;SDS011;53349;53.538;8.584;2024-02-23T06:01:18;8.83;;;1.20;;
66521;SDS011;53349;53.538;8.584;2024-02-23T06:03:44;6.85;;;1.20;;
66521;SDS011;53349;53.538;8.584;2024-02-23T06:06:09;5.82;;;1.08;;
66521;SDS011;53349;53.538;8.584;2024-02-23T06:08:35;4.00;;;1.20;;
66521;SDS011;53349;53.538;8.584;2024-02-23T06:11:00;6.40;;;1.13;;
66521;SDS011;53349;53.538;8.584;2024-02-23T06:13:25;6.93;;;1.47;;
66521;SDS011;53349;53.538;8.584;2024-02-23T06:15:51;6.68;;;1.45;;
66521;SDS011;53349;53.538;8.584;2024-02-23T06:18:16;4.78;;;1.40;;
66521;SDS011;53349;53.538;8.584;2024-02-23T06:20:42;4.00;;;1.50;;
66521;SDS011;53349;53.538;8.584;2024-02-23T06:23:16;6.90;;;1.75;;
66521;SDS011;53349;53.538;8.584;2024-02-23T06:25:45;4.47;;;1.60;;
66521;SDS011;53349;53.538;8.584;2024-02-23T06:28:21;5.45;;;1.67;;
66521;SDS011;53349;53.538;8.584;2024-02-23T06:30:56;6.83;;;1.90;;
66521;SDS011;53349;53.538;8.584;2024-02-23T06:33:24;4.40;;;1.63;;
66521;SDS011;53349;53.538;8.584;2024-02-23T06:35:50;5.70;;;1.80;;
66521;SDS011;53349;53.538;8.584;2024-02-23T06:38:15;7.47;;;2.25;;
66521;SDS011;53349;53.538;8.584;2024-02-23T06:40:40;4.63;;;2.00;;
66521;SDS011;53349;53.538;8.584;2024-02-23T06:43:06;5.67;;;1.90;;
66521;SDS011;53349;53.538;8.584;2024-02-23T06:45:32;4.43;;;1.70;;
66521;SDS011;53349;53.538;8.584;2024-02-23T06:48:00;4.85;;;1.83;;
66521;SDS011;53349;53.538;8.584;2024-02-23T06:50:26;6.10;;;2.15;;
66521;SDS011;53349;53.538;8.584;2024-02-23T06:52:51;6.20;;;1.70;;
66521;SDS011;53349;53.538;8.584;2024-02-23T06:55:16;6.53;;;2.03;;
66521;SDS011;53349;53.538;8.584;2024-02-23T06:57:41;9.67;;;2.50;;
66521;SDS011;53349;53.538;8.584;2024-02-23T07:00:07;4.53;;;2.00;;
66521;SDS011;53349;53.538;8.584;2024-02-23T07:02:36;5.07;;;1.90;;
66521;SDS011;53349;53.538;8.584;2024-02-23T07:05:03;8.43;;;2.20;;
66521;SDS011;53349;53.538;8.584;2024-02-23T07:07:29;7.57;;;2.47;;
66521;SDS011;53349;53.538;8.584;2024-02-23T07:09:54;5.90;;;1.85;;
66521;SDS011;53349;53.538;8.584;2024-02-23T07:12:19;8.90;;;2.40;;
66521;SDS011;53349;53.538;8.584;2024-02-23T07:14:46;8.10;;;2.03;;
66521;SDS011;53349;53.538;8.584;2024-02-23T07:17:11;7.00;;;2.28;;
66521;SDS011;53349;53.538;8.584;2024-02-23T07:19:37;9.07;;;2.40;;
66521;SDS011;53349;53.538;8.584;2024-02-23T07:22:02;6.70;;;2.37;;
66521;SDS011;53349;53.538;8.584;2024-02-23T07:24:27;5.73;;;1.87;;
66521;SDS011;53349;53.538;8.584;2024-02-23T07:26:52;5.60;;;1.80;;
66521;SDS011;53349;53.538;8.584;2024-02-23T07:29:18;7.43;;;2.27;;
66521;SDS011;53349;53.538;8.584;2024-02-23T07:31:43;4.83;;;1.90;;
66521;SDS011;53349;53.538;8.584;2024-02-23T07:34:10;7.50;;;2.38;;
66521;SDS011;53349;53.538;8.584;2024-02-23T07:36:37;8.60;;;2.30;;
66521;SDS011;53349;53.538;8.584;2024-02-23T07:39:02;7.60;;;2.10;;
66521;SDS011;53349;53.538;8.584;2024-02-23T07:41:27;6.10;;;2.10;;
66521;SDS011;53349;53.538;8.584;2024-02-23T07:43:53;8.30;;;2.03;;
66521;SDS011;53349;53.538;8.584;2024-02-23T07:46:18;7.57;;;2.03;;
66521;SDS011;53349;53.538;8.584;2024-02-23T07:48:43;8.30;;;2.20;;
66521;SDS011;53349;53.538;8.584;2024-02-23T07:51:08;4.70;;;1.87;;
66521;SDS011;53349;53.538;8.584;2024-02-23T07:53:34;11.27;;;2.13;;
66521;SDS011;53349;53.538;8.584;2024-02-23T07:55:59;4.93;;;1.90;;
66521;SDS011;53349;53.538;8.584;2024-02-23T07:58:25;4.80;;;1.90;;
66521;SDS011;53349;53.538;8.584;2024-02-23T08:00:50;6.95;;;1.67;;
66521;SDS011;53349;53.538;8.584;2024-02-23T08:03:16;6.13;;;2.03;;
66521;SDS011;53349;53.538;8.584;2024-02-23T08:05:41;8.60;;;2.30;;
66521;SDS011;53349;53.538;8.584;2024-02-23T08:08:06;6.00;;;1.97;;
66521;SDS011;53349;53.538;8.584;2024-02-23T08:10:32;9.20;;;2.17;;
66521;SDS011;53349;53.538;8.584;2024-02-23T08:12:58;7.90;;;2.07;;
66521;SDS011;53349;53.538;8.584;2024-02-23T08:15:25;8.63;;;2.05;;
66521;SDS011;53349;53.538;8.584;2024-02-23T08:17:51;6.47;;;1.35;;
66521;SDS011;53349;53.538;8.584;2024-02-23T08:20:16;6.40;;;1.70;;
66521;SDS011;53349;53.538;8.584;2024-02-23T08:22:42;7.47;;;1.80;;
66521;SDS011;53349;53.538;8.584;2024-02-23T08:25:07;4.77;;;1.40;;
66521;SDS011;53349;53.538;8.584;2024-02-23T08:27:33;9.32;;;1.63;;
66521;SDS011;53349;53.538;8.584;2024-02-23T08:29:58;5.47;;;1.50;;
66521;SDS011;53349;53.538;8.584;2024-02-23T08:32:23;4.23;;;1.50;;
66521;SDS011;53349;53.538;8.584;2024-02-23T08:34:48;5.07;;;1.37;;
66521;SDS011;53349;53.538;8.584;2024-02-23T08:37:14;5.47;;;1.63;;
66521;SDS011;53349;53.538;8.584;2024-02-23T08:39:39;3.57;;;1.00;;
66521;SDS011;53349;53.538;8.584;2024-02-23T08:42:04;7.33;;;1.33;;
66521;SDS011;53349;53.538;8.584;2024-02-23T08:44:29;7.20;;;1.63;;
66521;SDS011;53349;53.538;8.584;2024-02-23T08:46:54;6.33;;;1.43;;
66521;SDS011;53349;53.538;8.584;2024-02-23T08:49:20;6.47;;;1.47;;
66521;SDS011;53349;53.538;8.584;2024-02-23T08:51:45;6.83;;;1.53;;
66521;SDS011;53349;53.538;8.584;2024-02-23T08:54:10;9.30;;;1.67;;
66521;SDS011;53349;53.538;8.584;2024-02-23T08:56:38;5.87;;;1.50;;
66521;SDS011;53349;53.538;8.584;2024-02-23T08:59:04;5.75;;;1.48;;
66521;SDS011;53349;53.538;8.584;2024-02-23T09:01:29;7.63;;;1.70;;
66521;SDS011;53349;53.538;8.584;2024-02-23T09:03:54;5.10;;;1.63;;
66521;SDS011;53349;53.538;8.584;2024-02-23T09:06:20;8.30;;;1.43;;
66521;SDS011;53349;53.538;8.584;2024-02-23T09:08:45;4.87;;;1.40;;
66521;SDS011;53349;53.538;8.584;2024-02-23T09:11:10;7.00;;;1.67;;
66521;SDS011;53349;53.538;8.584;2024-02-23T09:13:35;6.83;;;1.27;;
66521;SDS011;53349;53.538;8.584;2024-02-23T09:16:01;7.00;;;1.50;;
66521;SDS011;53349;53.538;8.584;2024-02-23T09:18:26;6.33;;;1.50;;
66521;SDS011;53349;53.538;8.584;2024-02-23T09:20:51;4.93;;;1.40;;
66521;SDS011;53349;53.538;8.584;2024-02-23T09:23:16;10.20;;;1.40;;
66521;SDS011;53349;53.538;8.584;2024-02-23T09:25:42;5.83;;;1.40;;
66521;SDS011;53349;53.538;8.584;2024-02-23T09:28:07;5.73;;;1.60;;
66521;SDS011;53349;53.538;8.584;2024-02-23T09:30:32;5.20;;;1.40;;
66521;SDS011;53349;53.538;8.584;2024-02-23T09:32:58;3.50;;;1.40;;
66521;SDS011;53349;53.538;8.584;2024-02-23T09:35:23;4.93;;;1.33;;
66521;SDS011;53349;53.538;8.584;2024-02-23T09:37:48;6.78;;;1.50;;
66521;SDS011;53349;53.538;8.584;2024-02-23T09:40:14;5.90;;;1.33;;
66521;SDS011;53349;53.538;8.584;2024-02-23T09:42:40;4.83;;;1.67;;
66521;SDS011;53349;53.538;8.584;2024-02-23T09:45:06;5.20;;;1.30;;
66521;SDS011;53349;53.538;8.584;2024-02-23T09:47:32;6.63;;;1.88;;
66521;SDS011;53349;53.538;8.584;2024-02-23T09:49:57;6.20;;;1.20;;
66521;SDS011;53349;53.538;8.584;2024-02-23T09:52:23;4.95;;;1.15;;
66521;SDS011;53349;53.538;8.584;2024-02-23T09:54:49;3.93;;;0.90;;
66521;SDS011;53349;53.538;8.584;2024-02-23T09:57:14;6.83;;;1.20;;
66521;SDS011;53349;53.538;8.584;2024-02-23T09:59:40;5.30;;;1.10;;
66521;SDS011;53349;53.538;8.584;2024-02-23T10:02:09;4.20;;;0.97;;
66521;SDS011;53349;53.538;8.584;2024-02-23T10:04:34;6.30;;;1.30;;
66521;SDS011;53349;53.538;8.584;2024-02-23T10:06:59;4.20;;;0.97;;
66521;SDS011;53349;53.538;8.584;2024-02-23T10:09:25;9.00;;;1.60;;
66521;SDS011;53349;53.538;8.584;2024-02-23T10:11:53;6.20;;;1.10;;
66521;SDS011;53349;53.538;8.584;2024-02-23T10:14:18;5.78;;;1.20;;
66521;SDS011;53349;53.538;8.584;2024-02-23T10:16:44;7.00;;;1.30;;
66521;SDS011;53349;53.538;8.584;2024-02-23T10:19:09;4.47;;;1.17;;
66521;SDS011;53349;53.538;8.584;2024-02-23T10:21:34;5.47;;;1.13;;
66521;SDS011;53349;53.538;8.584;2024-02-23T10:24:00;4.63;;;1.00;;
66521;SDS011;53349;53.538;8.584;2024-02-23T10:26:26;5.30;;;0.80;;
66521;SDS011;53349;53.538;8.584;2024-02-23T10:28:51;6.68;;;1.10;;
66521;SDS011;53349;53.538;8.584;2024-02-23T10:31:16;8.60;;;1.10;;
66521;SDS011;53349;53.538;8.584;2024-02-23T10:33:42;4.15;;;0.88;;
66521;SDS011;53349;53.538;8.584;2024-02-23T10:36:09;3.45;;;0.60;;
66521;SDS011;53349;53.538;8.584;2024-02-23T10:38:37;4.82;;;0.70;;
66521;SDS011;53349;53.538;8.584;2024-02-23T10:41:03;5.88;;;1.00;;
66521;SDS011;53349;53.538;8.584;2024-02-23T10:43:30;3.67;;;0.70;;
66521;SDS011;53349;53.538;8.584;2024-02-23T10:45:58;5.03;;;1.07;;
66521;SDS011;53349;53.538;8.584;2024-02-23T10:48:23;3.47;;;0.60;;
66521;SDS011;53349;53.538;8.584;2024-02-23T10:50:49;3.60;;;0.63;;
66521;SDS011;53349;53.538;8.584;2024-02-23T10:53:15;4.28;;;0.70;;
66521;SDS011;53349;53.538;8.584;2024-02-23T10:55:41;4.43;;;0.60;;
66521;SDS011;53349;53.538;8.584;2024-02-23T10:58:08;5.23;;;0.70;;
66521;SDS011;53349;53.538;8.584;2024-02-23T11:00:34;4.38;;;0.90;;
66521;SDS011;53349;53.538;8.584;2024-02-23T11:02:59;5.57;;;1.00;;
66521;SDS011;53349;53.538;8.584;2024-02-23T11:05:25;3.20;;;0.80;;
66521;SDS011;53349;53.538;8.584;2024-02-23T11:07:51;3.90;;;0.80;;
66521;SDS011;53349;53.538;8.584;2024-02-23T11:10:16;4.03;;;0.57;;
66521;SDS011;53349;53.538;8.584;2024-02-23T11:12:41;3.38;;;0.70;;
66521;SDS011;53349;53.538;8.584;2024-02-23T11:15:07;4.60;;;1.13;;
66521;SDS011;53349;53.538;8.584;2024-02-23T11:17:33;4.17;;;0.87;;
66521;SDS011;53349;53.538;8.584;2024-02-23T11:20:02;4.22;;;1.10;;
66521;SDS011;53349;53.538;8.584;2024-02-23T11:22:33;4.45;;;0.80;;
66521;SDS011;53349;53.538;8.584;2024-02-23T11:27:30;5.35;;;0.80;;
66521;SDS011;53349;53.538;8.584;2024-02-23T11:30:05;3.97;;;0.90;;
66521;SDS011;53349;53.538;8.584;2024-02-23T11:32:37;4.03;;;1.02;;
66521;SDS011;53349;53.538;8.584;2024-02-23T11:35:03;2.83;;;0.90;;
66521;SDS011;53349;53.538;8.584;2024-02-23T11:37:28;3.65;;;1.20;;
66521;SDS011;53349;53.538;8.584;2024-02-23T11:39:53;4.13;;;1.07;;
66521;SDS011;53349;53.538;8.584;2024-02-23T11:42:19;4.67;;;1.23;;
66521;SDS011;53349;53.538;8.584;2024-02-23T11:44:44;4.40;;;1.30;;
66521;SDS011;53349;53.538;8.584;2024-02-23T11:47:10;3.93;;;1.13;;
66521;SDS011;53349;53.538;8.584;2024-02-23T11:49:35;3.40;;;1.00;;
66521;SDS011;53349;53.538;8.584;2024-02-23T11:52:00;5.53;;;1.10;;
66521;SDS011;53349;53.538;8.584;2024-02-23T11:54:25;4.40;;;1.20;;
66521;SDS011;53349;53.538;8.584;2024-02-23T11:56:51;3.17;;;1.07;;
66521;SDS011;53349;53.538;8.584;2024-02-23T11:59:16;5.27;;;1.33;;
66521;SDS011;53349;53.538;8.584;2024-02-23T12:01:41;3.90;;;0.90;;
66521;SDS011;53349;53.538;8.584;2024-02-23T12:04:07;4.33;;;1.30;;
66521;SDS011;53349;53.538;8.584;2024-02-23T12:06:33;4.70;;;1.20;;
66521;SDS011;53349;53.538;8.584;2024-02-23T12:08:58;4.07;;;1.00;;
66521;SDS011;53349;53.538;8.584;2024-02-23T12:11:23;6.43;;;1.23;;
66521;SDS011;53349;53.538;8.584;2024-02-23T12:13:49;4.43;;;1.23;;
66521;SDS011;53349;53.538;8.584;2024-02-23T12:16:14;6.05;;;1.30;;
66521;SDS011;53349;53.538;8.584;2024-02-23T12:18:39;4.37;;;1.50;;
66521;SDS011;53349;53.538;8.584;2024-02-23T12:21:05;3.97;;;1.30;;
66521;SDS011;53349;53.538;8.584;2024-02-23T12:23:40;3.97;;;1.40;;
66521;SDS011;53349;53.538;8.584;2024-02-23T12:26:06;4.57;;;1.50;;
66521;SDS011;53349;53.538;8.584;2024-02-23T12:28:31;4.93;;;1.52;;
66521;SDS011;53349;53.538;8.584;2024-02-23T12:31:03;4.07;;;1.30;;
66521;SDS011;53349;53.538;8.584;2024-02-23T12:33:32;5.87;;;1.40;;
66521;SDS011;53349;53.538;8.584;2024-02-23T12:35:58;4.20;;;1.50;;
66521;SDS011;53349;53.538;8.584;2024-02-23T12:38:23;5.03;;;1.88;;
66521;SDS011;53349;53.538;8.584;2024-02-23T12:40:48;4.50;;;1.57;;
66521;SDS011;53349;53.538;8.584;2024-02-23T12:43:14;4.63;;;1.33;;
66521;SDS011;53349;53.538;8.584;2024-02-23T12:45:39;5.90;;;1.70;;
66521;SDS011;53349;53.538;8.584;2024-02-23T12:48:05;5.60;;;1.73;;
66521;SDS011;53349;53.538;8.584;2024-02-23T12:50:30;6.35;;;1.65;;
66521;SDS011;53349;53.538;8.584;2024-02-23T12:52:56;5.77;;;1.93;;
66521;SDS011;53349;53.538;8.584;2024-02-23T12:55:21;5.60;;;1.90;;
66521;SDS011;53349;53.538;8.584;2024-02-23T12:57:46;6.27;;;2.37;;
66521;SDS011;53349;53.538;8.584;2024-02-23T13:00:12;6.20;;;2.20;;
66521;SDS011;53349;53.538;8.584;2024-02-23T13:02:37;5.80;;;2.17;;
66521;SDS011;53349;53.538;8.584;2024-02-23T13:05:03;5.80;;;1.80;;
66521;SDS011;53349;53.538;8.584;2024-02-23T13:07:28;5.50;;;1.70;;
66521;SDS011;53349;53.538;8.584;2024-02-23T13:09:53;4.90;;;1.57;;
66521;SDS011;53349;53.538;8.584;2024-02-23T13:12:18;4.00;;;1.40;;
66521;SDS011;53349;53.538;8.584;2024-02-23T13:14:43;4.97;;;1.48;;
66521;SDS011;53349;53.538;8.584;2024-02-23T13:17:09;8.00;;;1.70;;
66521;SDS011;53349;53.538;8.584;2024-02-23T13:19:34;4.87;;;1.30;;
66521;SDS011;53349;53.538;8.584;2024-02-23T13:21:59;3.87;;;1.37;;
66521;SDS011;53349;53.538;8.584;2024-02-23T13:24:24;5.73;;;1.40;;
66521;SDS011;53349;53.538;8.584;2024-02-23T13:26:50;5.23;;;1.53;;
66521;SDS011;53349;53.538;8.584;2024-02-23T13:29:15;5.10;;;2.10;;
66521;SDS011;53349;53.538;8.584;2024-02-23T13:31:40;7.13;;;1.50;;
66521;SDS011;53349;53.538;8.584;2024-02-23T13:34:05;8.70;;;1.63;;
66521;SDS011;53349;53.538;8.584;2024-02-23T13:36:31;5.40;;;1.13;;
66521;SDS011;53349;53.538;8.584;2024-02-23T13:38:56;4.13;;;1.33;;
66521;SDS011;53349;53.538;8.584;2024-02-23T13:41:21;4.70;;;1.30;;
66521;SDS011;53349;53.538;8.584;2024-02-23T13:43:47;7.10;;;1.50;;
66521;SDS011;53349;53.538;8.584;2024-02-23T13:46:12;5.27;;;1.60;;
66521;SDS011;53349;53.538;8.584;2024-02-23T13:48:37;4.47;;;1.40;;
66521;SDS011;53349;53.538;8.584;2024-02-23T13:51:02;4.83;;;1.60;;
66521;SDS011;53349;53.538;8.584;2024-02-23T13:53:28;4.50;;;1.23;;
66521;SDS011;53349;53.538;8.584;2024-02-23T13:55:54;6.00;;;1.50;;
66521;SDS011;53349;53.538;8.584;2024-02-23T13:58:19;3.73;;;1.20;;
66521;SDS011;53349;53.538;8.584;2024-02-23T14:00:44;3.97;;;1.50;;
66521;SDS011;53349;53.538;8.584;2024-02-23T14:03:10;4.70;;;1.30;;
66521;SDS011;53349;53.538;8.584;2024-02-23T14:05:43;5.32;;;1.38;;
66521;SDS011;53349;53.538;8.584;2024-02-23T14:08:09;5.50;;;1.40;;
66521;SDS011;53349;53.538;8.584;2024-02-23T14:10:34;3.50;;;1.35;;
66521;SDS011;53349;53.538;8.584;2024-02-23T14:12:59;2.77;;;1.40;;
66521;SDS011;53349;53.538;8.584;2024-02-23T14:15:24;2.90;;;1.13;;
66521;SDS011;53349;53.538;8.584;2024-02-23T14:17:50;4.47;;;1.50;;
66521;SDS011;53349;53.538;8.584;2024-02-23T14:20:15;4.37;;;1.47;;
66521;SDS011;53349;53.538;8.584;2024-02-23T14:22:40;5.57;;;1.50;;
66521;SDS011;53349;53.538;8.584;2024-02-23T14:25:06;5.00;;;1.30;;
66521;SDS011;53349;53.538;8.584;2024-02-23T14:27:31;4.50;;;1.50;;
66521;SDS011;53349;53.538;8.584;2024-02-23T14:29:57;4.65;;;1.60;;
66521;SDS011;53349;53.538;8.584;2024-02-23T14:32:22;3.50;;;1.07;;
66521;SDS011;53349;53.538;8.584;2024-02-23T14:34:47;3.00;;;1.00;;
66521;SDS011;53349;53.538;8.584;2024-02-23T14:37:12;4.87;;;1.30;;
66521;SDS011;53349;53.538;8.584;2024-02-23T14:39:38;3.40;;;1.30;;